Lanzhou, China
Current Conditions -  °F | °C
As of 10:00 PM on Thursday 23 Oct 2014 (Local Time) from ZLLL Reporting Station
Clear Clear  
Wind Chill: 43°   Ceiling: Unl
Heat Index: 43°   Visibility: 5mi
Dew Point: 34°   Wind: 2mph
Humidity: 70%   Direction: NA
Pressure: 30.18"   Gusts: NA
Location:  36.05°N, 103.68°E
Report Text: ZLLL 231400Z VRB01MPS 8000 NSC 06/01 Q1022 NOSIG
Loading
Personal Weather Stations






























Interactive Weather Map
Tropical Storm Tracking
New forecast layout! Learn more

10-Day Weather Forecast

Advertisements
Track Severe Weather on mobile